createdAt,value
2023-02-12T00:02:31.348Z,0.44
2023-02-12T00:05:37.537Z,0.49
2023-02-12T00:08:41.016Z,0.44
2023-02-12T00:11:43.477Z,0.53
2023-02-12T00:14:45.820Z,0.57
2023-02-12T00:17:48.259Z,0.61
2023-02-12T00:20:50.794Z,0.55
2023-02-12T00:23:53.105Z,0.60
2023-02-12T00:26:55.536Z,0.60
2023-02-12T00:30:01.725Z,0.61
2023-02-12T00:33:04.356Z,0.60
2023-02-12T00:36:08.323Z,0.64
2023-02-12T00:39:11.654Z,0.69
2023-02-12T00:42:13.967Z,0.74
2023-02-12T00:45:16.714Z,0.76
2023-02-12T00:48:19.103Z,0.81
2023-02-12T00:51:21.709Z,0.85
2023-02-12T00:54:23.875Z,0.88
2023-02-12T00:57:26.183Z,0.89
2023-02-12T01:00:28.527Z,0.89
2023-02-12T01:03:31.131Z,0.89
2023-02-12T01:06:33.523Z,0.90
2023-02-12T01:09:35.938Z,0.88
2023-02-12T01:12:38.284Z,0.86
2023-02-12T01:15:42.359Z,0.85
2023-02-12T01:18:45.683Z,0.79
2023-02-12T01:21:48.250Z,0.79
2023-02-12T01:24:50.712Z,0.77
2023-02-12T01:27:56.218Z,0.74
2023-02-12T01:30:58.682Z,0.75
2023-02-12T01:34:01.704Z,0.71
2023-02-12T01:37:04.727Z,0.75
2023-02-12T01:40:10.289Z,0.71
2023-02-12T01:43:13.429Z,0.65
2023-02-12T01:46:16.114Z,0.66
2023-02-12T01:49:26.917Z,0.67
2023-02-12T01:52:33.042Z,0.68
2023-02-12T01:55:35.835Z,0.70
2023-02-12T01:58:41.713Z,0.69
2023-02-12T02:01:44.892Z,0.72
2023-02-12T02:04:52.663Z,0.71
2023-02-12T02:07:55.168Z,0.69
2023-02-12T02:10:57.456Z,0.72
2023-02-12T02:14:18.891Z,0.74
2023-02-12T02:17:42.674Z,0.74
2023-02-12T02:21:12.111Z,0.78
2023-02-12T02:24:35.808Z,0.82
2023-02-12T02:27:59.440Z,0.85
2023-02-12T02:31:17.557Z,0.88
2023-02-12T02:34:29.875Z,0.90
2023-02-12T02:38:00.570Z,0.89
2023-02-12T02:41:26.335Z,0.86
2023-02-12T02:44:47.529Z,0.81
2023-02-12T02:48:00.620Z,0.79
2023-02-12T02:51:14.655Z,0.78
2023-02-12T02:54:26.341Z,0.79
2023-02-12T02:57:39.297Z,0.84
2023-02-12T03:00:56.257Z,0.84
2023-02-12T03:04:33.177Z,0.75
2023-02-12T03:07:42.054Z,0.80
2023-02-12T03:10:50.126Z,0.81
2023-02-12T03:14:07.568Z,0.79
2023-02-12T03:17:16.367Z,0.74
2023-02-12T03:20:29.696Z,0.73
2023-02-12T03:23:40.716Z,0.75
2023-02-12T03:26:48.728Z,0.77
2023-02-12T03:29:52.294Z,0.71
2023-02-12T03:33:06.777Z,0.83
2023-02-12T03:36:20.412Z,0.89
2023-02-12T03:40:02.671Z,1.03
2023-02-12T03:43:23.788Z,1.23
2023-02-12T03:46:52.481Z,1.25
2023-02-12T03:50:10.069Z,1.31
2023-02-12T03:53:12.904Z,1.36
2023-02-12T03:56:24.276Z,1.43
2023-02-12T03:59:27.070Z,1.45
2023-02-12T04:02:29.617Z,1.54
2023-02-12T04:05:32.178Z,1.68
2023-02-12T04:08:34.832Z,1.74
2023-02-12T04:12:10.294Z,1.72
2023-02-12T04:15:21.529Z,1.71
2023-02-12T04:18:45.038Z,1.80
2023-02-12T04:22:23.591Z,1.78
2023-02-12T04:25:25.915Z,1.73
2023-02-12T04:28:37.834Z,1.75
2023-02-12T04:31:48.737Z,1.80
2023-02-12T04:35:03.106Z,1.85
2023-02-12T04:38:14.052Z,1.91
2023-02-12T04:41:16.444Z,2.10
2023-02-12T04:44:24.521Z,2.24
2023-02-12T04:47:26.841Z,2.42
2023-02-12T04:50:41.009Z,2.63
2023-02-12T04:53:43.337Z,2.80
2023-02-12T04:56:46.366Z,2.86
2023-02-12T04:59:48.795Z,2.91
2023-02-12T05:02:51.056Z,2.93
2023-02-12T05:05:53.551Z,2.90
2023-02-12T05:08:57.512Z,2.87
2023-02-12T05:11:59.837Z,2.72
2023-02-12T05:15:02.342Z,2.72
2023-02-12T05:18:04.840Z,2.65
2023-02-12T05:21:07.305Z,2.54
2023-02-12T05:24:09.808Z,2.47
2023-02-12T05:27:12.409Z,2.47
2023-02-12T05:30:14.932Z,2.55
2023-02-12T05:33:17.260Z,2.68
2023-02-12T05:36:23.515Z,2.61
2023-02-12T05:39:26.044Z,2.45
2023-02-12T05:42:29.836Z,2.24
2023-02-12T05:45:33.420Z,2.33
2023-02-12T05:48:36.589Z,2.41
2023-02-12T05:51:39.580Z,2.49
2023-02-12T05:54:42.029Z,2.50
2023-02-12T05:57:44.377Z,2.55
2023-02-12T06:00:46.744Z,2.63
2023-02-12T06:03:49.432Z,2.72
2023-02-12T06:06:52.788Z,2.79
2023-02-12T06:09:57.816Z,2.86
2023-02-12T06:13:00.200Z,2.88
2023-02-12T06:16:02.927Z,3.08
2023-02-12T06:19:06.555Z,3.04
2023-02-12T06:22:08.945Z,2.92
2023-02-12T06:25:11.227Z,3.04
2023-02-12T06:28:13.579Z,3.17
2023-02-12T06:31:21.454Z,3.47
2023-02-12T06:34:23.796Z,3.68
2023-02-12T06:37:26.312Z,3.86
2023-02-12T06:40:28.866Z,3.82
2023-02-12T06:43:31.284Z,3.88
2023-02-12T06:46:33.764Z,4.05
2023-02-12T06:49:36.134Z,4.13
2023-02-12T06:52:38.538Z,4.28
2023-02-12T06:55:41.985Z,4.27
2023-02-12T06:58:46.921Z,4.37
2023-02-12T07:01:49.229Z,4.49
2023-02-12T07:04:51.590Z,4.51
2023-02-12T07:07:54.006Z,4.59
2023-02-12T07:10:56.298Z,4.52
2023-02-12T07:13:59.056Z,4.53
2023-02-12T07:17:05.050Z,4.54
2023-02-12T07:20:08.330Z,4.53
2023-02-12T07:23:13.881Z,4.53
2023-02-12T07:26:16.813Z,4.54
2023-02-12T07:29:19.158Z,4.66
2023-02-12T07:32:21.497Z,4.86
2023-02-12T07:35:23.788Z,5.43
2023-02-12T07:38:26.068Z,6.38
2023-02-12T07:41:30.669Z,6.95
2023-02-12T07:44:34.571Z,7.60
2023-02-12T07:47:38.728Z,8.15
2023-02-12T07:50:41.064Z,8.37
2023-02-12T07:53:43.801Z,8.52
2023-02-12T07:56:47.534Z,8.34
2023-02-12T07:59:49.976Z,8.40
2023-02-12T08:02:55.672Z,7.96
2023-02-12T08:05:58.302Z,7.71
2023-02-12T08:09:04.256Z,8.24
2023-02-12T08:12:06.929Z,8.14
2023-02-12T08:15:09.623Z,8.13
2023-02-12T08:18:11.987Z,8.66
2023-02-12T08:21:17.973Z,8.46
2023-02-12T08:24:22.373Z,8.37
2023-02-12T08:27:24.791Z,8.35
2023-02-12T08:30:28.356Z,8.49
2023-02-12T08:33:33.690Z,8.56
2023-02-12T08:36:40.413Z,8.55
2023-02-12T08:39:42.985Z,8.90
2023-02-12T08:42:45.334Z,9.03
2023-02-12T08:45:47.714Z,9.04
2023-02-12T08:48:54.884Z,8.95
2023-02-12T08:51:59.134Z,9.32
2023-02-12T08:55:01.839Z,9.47
2023-02-12T08:58:04.359Z,9.03
2023-02-12T09:01:12.068Z,9.14
2023-02-12T09:04:23.997Z,9.30
2023-02-12T09:07:26.956Z,9.20
2023-02-12T09:10:29.304Z,9.54
2023-02-12T09:13:33.345Z,9.10
2023-02-12T09:16:37.583Z,8.64
2023-02-12T09:19:40.129Z,8.70
2023-02-12T09:22:43.028Z,8.33
2023-02-12T09:25:46.964Z,8.31
2023-02-12T09:28:50.980Z,8.71
2023-02-12T09:31:54.267Z,8.51
2023-02-12T09:34:57.108Z,8.57
2023-02-12T09:37:59.458Z,8.98
2023-02-12T09:41:39.286Z,9.33
2023-02-12T09:45:07.926Z,9.59
2023-02-12T09:48:31.091Z,9.71
2023-02-12T09:51:33.693Z,9.72
2023-02-12T09:54:39.842Z,9.81
2023-02-12T09:57:43.007Z,10.02
2023-02-12T10:00:46.424Z,9.59
2023-02-12T10:03:51.877Z,9.43
2023-02-12T10:07:07.671Z,9.45
2023-02-12T10:10:32.329Z,8.91
2023-02-12T10:14:01.790Z,8.91
2023-02-12T10:17:35.370Z,8.90
2023-02-12T10:20:43.580Z,8.95
2023-02-12T10:24:06.712Z,9.05
2023-02-12T10:27:19.288Z,9.17
2023-02-12T10:30:41.111Z,9.79
2023-02-12T10:33:49.752Z,9.38
2023-02-12T10:36:58.631Z,9.19
2023-02-12T10:40:32.857Z,9.39
2023-02-12T10:43:35.655Z,9.37
2023-02-12T10:46:39.107Z,9.60
2023-02-12T10:49:42.243Z,9.63
2023-02-12T10:52:55.247Z,9.69
2023-02-12T10:56:13.138Z,9.44
2023-02-12T10:59:24.394Z,10.24
2023-02-12T11:02:30.794Z,10.69
2023-02-12T11:05:37.318Z,10.15
2023-02-12T11:08:41.382Z,9.65
2023-02-12T11:11:44.186Z,9.74
2023-02-12T11:14:59.207Z,9.47
2023-02-12T11:18:05.738Z,9.22
2023-02-12T11:21:10.975Z,9.20
2023-02-12T11:24:38.849Z,9.31
2023-02-12T11:27:45.156Z,9.36
2023-02-12T11:30:59.110Z,9.22
2023-02-12T11:34:04.795Z,9.17
2023-02-12T11:37:17.749Z,9.05
2023-02-12T11:40:48.478Z,8.93
2023-02-12T11:43:52.192Z,9.09
2023-02-12T11:47:04.058Z,9.47
2023-02-12T11:50:31.844Z,9.50
2023-02-12T11:53:40.884Z,9.25
2023-02-12T11:56:47.008Z,9.08
2023-02-12T11:59:50.225Z,9.03
2023-02-12T12:03:28.323Z,9.04
2023-02-12T12:06:46.742Z,9.01
2023-02-12T12:10:13.886Z,8.91
2023-02-12T12:13:28.701Z,9.24
2023-02-12T12:17:03.866Z,9.99
2023-02-12T12:20:30.000Z,11.91
2023-02-12T12:23:37.940Z,12.23
2023-02-12T12:26:42.938Z,11.85
2023-02-12T12:29:57.940Z,11.09
2023-02-12T12:33:05.459Z,10.90
2023-02-12T12:36:16.838Z,10.36
2023-02-12T12:39:27.249Z,9.81
2023-02-12T12:43:07.511Z,9.78
2023-02-12T12:46:41.461Z,9.42
2023-02-12T12:50:25.553Z,9.12
2023-02-12T12:53:46.993Z,9.10
2023-02-12T12:57:10.711Z,9.02
2023-02-12T13:00:51.124Z,9.10
2023-02-12T13:04:36.578Z,9.12
2023-02-12T13:07:47.531Z,9.05
2023-02-12T13:11:01.452Z,9.02
2023-02-12T13:14:25.957Z,9.34
2023-02-12T13:18:09.355Z,9.47
2023-02-12T13:21:34.640Z,9.42
2023-02-12T13:25:03.347Z,9.21
2023-02-12T13:28:12.980Z,9.19
2023-02-12T13:31:37.018Z,9.10
2023-02-12T13:34:43.446Z,9.09
2023-02-12T13:37:57.519Z,9.00
2023-02-12T13:41:07.645Z,9.01
2023-02-12T13:44:17.170Z,8.92
2023-02-12T13:48:25.585Z,8.87
2023-02-12T13:51:39.917Z,8.75
2023-02-12T13:54:55.722Z,8.72
2023-02-12T13:58:31.574Z,8.81
2023-02-12T14:01:45.850Z,8.82
2023-02-12T14:05:03.842Z,8.80
2023-02-12T14:08:08.481Z,8.69
2023-02-12T14:11:21.264Z,8.78
2023-02-12T14:14:33.329Z,8.70
2023-02-12T14:17:38.498Z,8.75
2023-02-12T14:20:44.176Z,8.77
2023-02-12T14:23:48.244Z,9.46
2023-02-12T14:26:52.351Z,9.88
2023-02-12T14:30:32.561Z,10.25
2023-02-12T14:33:36.255Z,9.83
2023-02-12T14:36:44.366Z,9.48
2023-02-12T14:39:49.528Z,9.34
2023-02-12T14:42:57.605Z,9.15
2023-02-12T14:46:25.867Z,8.85
2023-02-12T14:49:36.857Z,8.68
2023-02-12T14:52:50.885Z,8.53
2023-02-12T14:55:54.823Z,8.45
2023-02-12T14:59:04.316Z,8.33
2023-02-12T15:02:15.131Z,8.36
2023-02-12T15:05:27.038Z,8.31
2023-02-12T15:08:51.831Z,8.30
2023-02-12T15:12:11.245Z,8.26
2023-02-12T15:15:45.987Z,8.24
2023-02-12T15:19:00.025Z,8.16
2023-02-12T15:22:03.974Z,8.14
2023-02-12T15:25:30.827Z,8.13
2023-02-12T15:28:38.349Z,8.07
2023-02-12T15:31:42.896Z,8.10
2023-02-12T15:34:50.744Z,8.09
2023-02-12T15:37:56.351Z,7.98
2023-02-12T15:41:02.359Z,7.99
2023-02-12T15:44:22.738Z,7.99
2023-02-12T15:47:28.546Z,8.00
2023-02-12T15:50:34.122Z,7.96
2023-02-12T15:53:40.855Z,7.93
2023-02-12T15:56:44.859Z,7.88
2023-02-12T15:59:57.750Z,7.85
2023-02-12T16:03:01.580Z,7.78
2023-02-12T16:06:13.926Z,7.76
2023-02-12T16:09:29.499Z,7.71
2023-02-12T16:12:38.240Z,7.65
2023-02-12T16:15:43.599Z,7.63
2023-02-12T16:19:03.648Z,7.66
2023-02-12T16:22:15.042Z,7.61
2023-02-12T16:25:26.317Z,7.58
2023-02-12T16:28:32.910Z,7.51
2023-02-12T16:31:37.393Z,7.45
2023-02-12T16:34:42.535Z,7.34
2023-02-12T16:37:51.609Z,7.31
2023-02-12T16:41:21.593Z,7.26
2023-02-12T16:44:33.175Z,7.21
2023-02-12T16:47:37.403Z,7.16
2023-02-12T16:50:51.068Z,7.14
2023-02-12T16:53:58.245Z,7.12
2023-02-12T16:57:03.450Z,7.11
2023-02-12T17:00:10.806Z,7.08
2023-02-12T17:03:17.610Z,7.17
2023-02-12T17:06:25.587Z,7.16
2023-02-12T17:09:30.480Z,7.13
2023-02-12T17:12:34.439Z,7.09
2023-02-12T17:15:44.869Z,6.98
2023-02-12T17:18:48.642Z,6.92
2023-02-12T17:21:52.622Z,6.86
2023-02-12T17:24:56.158Z,6.80
2023-02-12T17:28:01.447Z,6.74
2023-02-12T17:31:07.851Z,6.71
2023-02-12T17:34:12.977Z,6.67
2023-02-12T17:37:17.965Z,6.64
2023-02-12T17:40:22.359Z,6.60
2023-02-12T17:43:26.550Z,6.57
2023-02-12T17:46:31.056Z,6.51
2023-02-12T17:49:36.137Z,6.43
2023-02-12T17:52:43.230Z,6.44
2023-02-12T17:55:47.716Z,6.39
2023-02-12T17:58:51.636Z,6.35
2023-02-12T18:01:57.714Z,6.38
2023-02-12T18:05:01.647Z,6.38
2023-02-12T18:08:07.310Z,6.34
2023-02-12T18:11:12.895Z,6.35
2023-02-12T18:14:18.782Z,6.37
2023-02-12T18:17:23.043Z,6.43
2023-02-12T18:20:29.125Z,6.43
2023-02-12T18:23:36.249Z,6.48
2023-02-12T18:26:40.422Z,6.49
2023-02-12T18:29:44.723Z,6.49
2023-02-12T18:32:48.879Z,6.62
2023-02-12T18:36:10.660Z,6.65
2023-02-12T18:39:19.579Z,6.71
2023-02-12T18:42:24.449Z,6.86
2023-02-12T18:45:29.701Z,6.88
2023-02-12T18:48:34.615Z,6.85
2023-02-12T18:51:41.828Z,6.80
2023-02-12T18:54:49.577Z,6.76
2023-02-12T18:57:54.566Z,6.71
2023-02-12T19:00:59.454Z,6.66
2023-02-12T19:04:07.571Z,6.59
2023-02-12T19:07:13.343Z,6.49
2023-02-12T19:10:22.932Z,6.41
2023-02-12T19:13:27.264Z,6.34
2023-02-12T19:16:34.303Z,6.31
2023-02-12T19:19:39.202Z,6.26
2023-02-12T19:22:48.408Z,6.19
2023-02-12T19:25:52.793Z,6.16
2023-02-12T19:28:59.670Z,6.09
2023-02-12T19:32:05.392Z,6.07
2023-02-12T19:35:09.488Z,6.01
2023-02-12T19:38:13.181Z,5.97
2023-02-12T19:41:20.212Z,5.94
2023-02-12T19:44:29.284Z,5.88
2023-02-12T19:47:35.640Z,5.79
2023-02-12T19:50:46.984Z,5.74
2023-02-12T19:53:59.512Z,5.73
2023-02-12T19:57:09.328Z,5.71
2023-02-12T20:00:14.368Z,5.67
2023-02-12T20:03:20.817Z,5.63
2023-02-12T20:06:31.050Z,5.56
2023-02-12T20:09:36.061Z,5.54
2023-02-12T20:12:43.776Z,5.52
2023-02-12T20:15:48.786Z,5.45
2023-02-12T20:18:56.726Z,5.41
2023-02-12T20:22:05.540Z,5.30
2023-02-12T20:25:09.895Z,5.21
2023-02-12T20:28:13.968Z,5.09
2023-02-12T20:31:29.124Z,5.10
2023-02-12T20:34:45.761Z,5.13
2023-02-12T20:38:07.913Z,5.15
2023-02-12T20:41:14.040Z,5.16
2023-02-12T20:44:21.803Z,5.20
2023-02-12T20:47:34.241Z,5.24
2023-02-12T20:50:38.894Z,5.27
2023-02-12T20:53:44.367Z,5.29
2023-02-12T20:56:49.804Z,5.19
2023-02-12T20:59:57.462Z,5.22
2023-02-12T21:03:04.570Z,5.23
2023-02-12T21:06:10.180Z,5.25
2023-02-12T21:09:15.175Z,5.19
2023-02-12T21:12:20.217Z,5.17
2023-02-12T21:15:25.290Z,5.13
2023-02-12T21:18:33.451Z,5.07
2023-02-12T21:21:40.247Z,5.03
2023-02-12T21:24:43.997Z,5.00
2023-02-12T21:27:47.381Z,4.93
2023-02-12T21:30:50.709Z,4.93
2023-02-12T21:33:59.887Z,4.89
2023-02-12T21:37:05.301Z,4.81
2023-02-12T21:40:10.860Z,4.74
2023-02-12T21:43:14.213Z,4.71
2023-02-12T21:46:18.662Z,4.67
2023-02-12T21:49:28.703Z,4.63
2023-02-12T21:52:32.012Z,4.58
2023-02-12T21:55:38.194Z,4.56
2023-02-12T21:58:41.222Z,4.59
2023-02-12T22:01:49.862Z,4.62
2023-02-12T22:04:54.832Z,4.61
2023-02-12T22:07:57.372Z,4.64
2023-02-12T22:11:06.704Z,4.65
2023-02-12T22:14:13.003Z,4.65
2023-02-12T22:17:15.492Z,4.66
2023-02-12T22:20:18.657Z,4.58
2023-02-12T22:23:20.953Z,4.52
2023-02-12T22:26:28.752Z,4.46
2023-02-12T22:29:31.300Z,4.43
2023-02-12T22:32:33.930Z,4.57
2023-02-12T22:35:36.340Z,4.51
2023-02-12T22:38:39.870Z,4.40
2023-02-12T22:41:42.768Z,4.29
2023-02-12T22:44:45.143Z,4.12
2023-02-12T22:47:47.449Z,3.94
2023-02-12T22:50:49.772Z,3.77
2023-02-12T22:53:52.228Z,3.60
2023-02-12T22:56:54.633Z,3.44
2023-02-12T22:59:56.973Z,3.32
2023-02-12T23:02:59.410Z,3.18
2023-02-12T23:06:02.770Z,3.07
2023-02-12T23:09:05.423Z,2.95
2023-02-12T23:12:09.750Z,2.85
2023-02-12T23:15:12.110Z,2.78
2023-02-12T23:18:15.642Z,2.63
2023-02-12T23:21:18.054Z,2.60
2023-02-12T23:24:20.437Z,2.50
2023-02-12T23:27:22.804Z,2.40
2023-02-12T23:30:25.132Z,2.31
2023-02-12T23:33:27.751Z,2.17
2023-02-12T23:36:30.157Z,2.05
2023-02-12T23:39:32.477Z,1.96
2023-02-12T23:42:34.854Z,1.95
2023-02-12T23:45:37.242Z,1.87
2023-02-12T23:48:39.688Z,1.78
2023-02-12T23:51:42.066Z,1.70
2023-02-12T23:54:44.370Z,1.63
2023-02-12T23:57:47.670Z,1.66
